sensor_id;sensor_type;location;lat;lon;timestamp;temperature;humidity
46336;DHT22;31365;48.858;8.530;2022-12-18T00:00:07;-6.90;99.90
46336;DHT22;31365;48.858;8.530;2022-12-18T00:02:39;-7.00;99.90
46336;DHT22;31365;48.858;8.530;2022-12-18T00:05:08;-6.90;99.90
46336;DHT22;31365;48.858;8.530;2022-12-18T00:07:36;-7.00;99.90
46336;DHT22;31365;48.858;8.530;2022-12-18T00:10:07;-7.00;99.90
46336;DHT22;31365;48.858;8.530;2022-12-18T00:12:36;-7.10;99.90
46336;DHT22;31365;48.858;8.530;2022-12-18T00:15:05;-7.10;99.90
46336;DHT22;31365;48.858;8.530;2022-12-18T00:17:35;-7.10;99.90
46336;DHT22;31365;48.858;8.530;2022-12-18T00:20:03;-7.10;99.90
46336;DHT22;31365;48.858;8.530;2022-12-18T00:22:33;-7.10;99.90
46336;DHT22;31365;48.858;8.530;2022-12-18T00:25:01;-7.00;99.90
46336;DHT22;31365;48.858;8.530;2022-12-18T00:27:31;-7.00;99.90
46336;DHT22;31365;48.858;8.530;2022-12-18T00:30:00;-7.10;99.90
46336;DHT22;31365;48.858;8.530;2022-12-18T00:32:29;-7.10;99.90
46336;DHT22;31365;48.858;8.530;2022-12-18T00:34:57;-7.20;99.90
46336;DHT22;31365;48.858;8.530;2022-12-18T00:37:25;-7.20;99.90
46336;DHT22;31365;48.858;8.530;2022-12-18T00:39:55;-7.20;99.90
46336;DHT22;31365;48.858;8.530;2022-12-18T00:42:23;-7.20;99.90
46336;DHT22;31365;48.858;8.530;2022-12-18T00:45:11;-7.30;99.90
46336;DHT22;31365;48.858;8.530;2022-12-18T00:47:40;-7.40;99.90
46336;DHT22;31365;48.858;8.530;2022-12-18T00:50:09;-7.30;99.90
46336;DHT22;31365;48.858;8.530;2022-12-18T00:52:40;-7.30;99.90
46336;DHT22;31365;48.858;8.530;2022-12-18T00:55:10;-7.40;99.90
46336;DHT22;31365;48.858;8.530;2022-12-18T00:57:39;-7.40;99.90
46336;DHT22;31365;48.858;8.530;2022-12-18T01:00:12;-7.50;99.90
46336;DHT22;31365;48.858;8.530;2022-12-18T01:02:42;-7.50;99.90
46336;DHT22;31365;48.858;8.530;2022-12-18T01:05:13;-7.40;99.90
46336;DHT22;31365;48.858;8.530;2022-12-18T01:07:42;-7.40;99.90
46336;DHT22;31365;48.858;8.530;2022-12-18T01:10:12;-7.40;99.90
46336;DHT22;31365;48.858;8.530;2022-12-18T01:12:41;-7.40;99.90
46336;DHT22;31365;48.858;8.530;2022-12-18T01:15:12;-7.20;99.90
46336;DHT22;31365;48.858;8.530;2022-12-18T01:17:42;-7.30;99.90
46336;DHT22;31365;48.858;8.530;2022-12-18T01:20:12;-7.30;99.90
46336;DHT22;31365;48.858;8.530;2022-12-18T01:22:40;-7.30;99.90
46336;DHT22;31365;48.858;8.530;2022-12-18T01:25:08;-7.30;99.90
46336;DHT22;31365;48.858;8.530;2022-12-18T01:27:37;-7.20;99.90
46336;DHT22;31365;48.858;8.530;2022-12-18T01:30:07;-7.20;99.90
46336;DHT22;31365;48.858;8.530;2022-12-18T01:32:38;-7.20;99.90
46336;DHT22;31365;48.858;8.530;2022-12-18T01:35:07;-7.10;99.90
46336;DHT22;31365;48.858;8.530;2022-12-18T01:37:36;-7.00;99.90
46336;DHT22;31365;48.858;8.530;2022-12-18T01:40:06;-7.00;99.90
46336;DHT22;31365;48.858;8.530;2022-12-18T01:42:35;-7.00;99.90
46336;DHT22;31365;48.858;8.530;2022-12-18T01:45:09;-7.00;99.90
46336;DHT22;31365;48.858;8.530;2022-12-18T01:47:55;-6.90;99.90
46336;DHT22;31365;48.858;8.530;2022-12-18T01:50:31;-6.90;99.90
46336;DHT22;31365;48.858;8.530;2022-12-18T01:53:05;-6.80;99.90
46336;DHT22;31365;48.858;8.530;2022-12-18T01:55:43;-6.80;99.90
46336;DHT22;31365;48.858;8.530;2022-12-18T01:58:24;-6.80;99.90
46336;DHT22;31365;48.858;8.530;2022-12-18T02:00:58;-6.80;99.90
46336;DHT22;31365;48.858;8.530;2022-12-18T02:03:28;-6.80;99.90
46336;DHT22;31365;48.858;8.530;2022-12-18T02:06:03;-6.80;99.90
46336;DHT22;31365;48.858;8.530;2022-12-18T02:08:42;-6.80;99.90
46336;DHT22;31365;48.858;8.530;2022-12-18T02:11:21;-6.80;99.90
46336;DHT22;31365;48.858;8.530;2022-12-18T02:14:02;-6.80;99.90
46336;DHT22;31365;48.858;8.530;2022-12-18T02:16:46;-6.80;99.90
46336;DHT22;31365;48.858;8.530;2022-12-18T02:19:47;-6.80;99.90
46336;DHT22;31365;48.858;8.530;2022-12-18T02:22:37;-6.70;99.90
46336;DHT22;31365;48.858;8.530;2022-12-18T02:25:28;-6.80;99.90
46336;DHT22;31365;48.858;8.530;2022-12-18T02:28:16;-6.80;99.90
46336;DHT22;31365;48.858;8.530;2022-12-18T02:30:51;-6.80;99.90
46336;DHT22;31365;48.858;8.530;2022-12-18T02:33:25;-6.90;99.90
46336;DHT22;31365;48.858;8.530;2022-12-18T02:35:57;-6.80;99.90
46336;DHT22;31365;48.858;8.530;2022-12-18T02:38:30;-6.80;99.90
46336;DHT22;31365;48.858;8.530;2022-12-18T02:41:06;-6.90;99.90
46336;DHT22;31365;48.858;8.530;2022-12-18T02:43:37;-6.90;99.90
46336;DHT22;31365;48.858;8.530;2022-12-18T02:46:25;-6.90;99.90
46336;DHT22;31365;48.858;8.530;2022-12-18T02:49:21;-6.90;99.90
46336;DHT22;31365;48.858;8.530;2022-12-18T02:52:07;-7.00;99.90
46336;DHT22;31365;48.858;8.530;2022-12-18T02:54:57;-7.00;99.90
46336;DHT22;31365;48.858;8.530;2022-12-18T02:57:42;-7.10;99.90
46336;DHT22;31365;48.858;8.530;2022-12-18T03:00:24;-7.00;99.90
46336;DHT22;31365;48.858;8.530;2022-12-18T03:03:06;-7.00;99.90
46336;DHT22;31365;48.858;8.530;2022-12-18T03:05:44;-7.00;99.90
46336;DHT22;31365;48.858;8.530;2022-12-18T03:08:20;-7.10;99.90
46336;DHT22;31365;48.858;8.530;2022-12-18T03:10:57;-7.20;99.90
46336;DHT22;31365;48.858;8.530;2022-12-18T03:13:34;-7.30;99.90
46336;DHT22;31365;48.858;8.530;2022-12-18T03:16:11;-7.20;99.90
46336;DHT22;31365;48.858;8.530;2022-12-18T03:18:46;-7.30;99.90
46336;DHT22;31365;48.858;8.530;2022-12-18T03:21:17;-7.30;99.90
46336;DHT22;31365;48.858;8.530;2022-12-18T03:23:51;-7.30;99.90
46336;DHT22;31365;48.858;8.530;2022-12-18T03:26:26;-7.30;99.90
46336;DHT22;31365;48.858;8.530;2022-12-18T03:29:03;-7.30;99.90
46336;DHT22;31365;48.858;8.530;2022-12-18T03:31:37;-7.30;99.90
46336;DHT22;31365;48.858;8.530;2022-12-18T03:34:12;-7.30;99.90
46336;DHT22;31365;48.858;8.530;2022-12-18T03:36:46;-7.40;99.90
46336;DHT22;31365;48.858;8.530;2022-12-18T03:39:14;-7.30;99.90
46336;DHT22;31365;48.858;8.530;2022-12-18T03:41:55;-7.30;99.90
46336;DHT22;31365;48.858;8.530;2022-12-18T03:44:42;-7.30;99.90
46336;DHT22;31365;48.858;8.530;2022-12-18T03:47:25;-7.40;99.90
46336;DHT22;31365;48.858;8.530;2022-12-18T03:50:09;-7.50;99.90
46336;DHT22;31365;48.858;8.530;2022-12-18T03:52:48;-7.40;99.90
46336;DHT22;31365;48.858;8.530;2022-12-18T03:55:22;-7.50;99.90
46336;DHT22;31365;48.858;8.530;2022-12-18T03:57:59;-7.50;99.90
46336;DHT22;31365;48.858;8.530;2022-12-18T04:00:39;-7.40;99.90
46336;DHT22;31365;48.858;8.530;2022-12-18T04:03:11;-7.50;99.90
46336;DHT22;31365;48.858;8.530;2022-12-18T04:05:46;-7.50;99.90
46336;DHT22;31365;48.858;8.530;2022-12-18T04:08:21;-7.30;99.90
46336;DHT22;31365;48.858;8.530;2022-12-18T04:11:00;-7.30;99.90
46336;DHT22;31365;48.858;8.530;2022-12-18T04:13:34;-7.30;99.90
46336;DHT22;31365;48.858;8.530;2022-12-18T04:16:08;-7.20;99.90
46336;DHT22;31365;48.858;8.530;2022-12-18T04:18:42;-7.20;99.90
46336;DHT22;31365;48.858;8.530;2022-12-18T04:21:10;-7.20;99.90
46336;DHT22;31365;48.858;8.530;2022-12-18T04:23:39;-7.10;99.90
46336;DHT22;31365;48.858;8.530;2022-12-18T04:26:07;-7.00;99.90
46336;DHT22;31365;48.858;8.530;2022-12-18T04:28:56;-7.00;99.90
46336;DHT22;31365;48.858;8.530;2022-12-18T04:31:25;-6.90;99.90
46336;DHT22;31365;48.858;8.530;2022-12-18T04:33:57;-7.00;99.90
46336;DHT22;31365;48.858;8.530;2022-12-18T04:36:27;-7.20;99.90
46336;DHT22;31365;48.858;8.530;2022-12-18T04:38:57;-7.20;99.90
46336;DHT22;31365;48.858;8.530;2022-12-18T04:41:25;-7.20;99.90
46336;DHT22;31365;48.858;8.530;2022-12-18T04:43:54;-7.20;99.90
46336;DHT22;31365;48.858;8.530;2022-12-18T04:46:23;-7.20;99.90
46336;DHT22;31365;48.858;8.530;2022-12-18T04:48:51;-7.30;99.90
46336;DHT22;31365;48.858;8.530;2022-12-18T04:51:21;-7.40;99.90
46336;DHT22;31365;48.858;8.530;2022-12-18T04:53:52;-7.40;99.90
46336;DHT22;31365;48.858;8.530;2022-12-18T04:56:21;-7.40;99.90
46336;DHT22;31365;48.858;8.530;2022-12-18T04:58:50;-7.40;99.90
46336;DHT22;31365;48.858;8.530;2022-12-18T05:01:19;-7.30;99.90
46336;DHT22;31365;48.858;8.530;2022-12-18T05:03:47;-7.30;99.90
46336;DHT22;31365;48.858;8.530;2022-12-18T05:06:16;-7.30;99.90
46336;DHT22;31365;48.858;8.530;2022-12-18T05:08:46;-7.30;99.90
46336;DHT22;31365;48.858;8.530;2022-12-18T05:11:15;-7.40;99.90
46336;DHT22;31365;48.858;8.530;2022-12-18T05:13:44;-7.40;99.90
46336;DHT22;31365;48.858;8.530;2022-12-18T05:16:13;-7.40;99.90
46336;DHT22;31365;48.858;8.530;2022-12-18T05:18:43;-7.40;99.90
46336;DHT22;31365;48.858;8.530;2022-12-18T05:24:56;-7.70;99.90
46336;DHT22;31365;48.858;8.530;2022-12-18T05:27:24;-7.70;99.90
46336;DHT22;31365;48.858;8.530;2022-12-18T05:29:53;-7.70;99.90
46336;DHT22;31365;48.858;8.530;2022-12-18T05:32:21;-7.70;99.90
46336;DHT22;31365;48.858;8.530;2022-12-18T05:34:50;-7.70;99.90
46336;DHT22;31365;48.858;8.530;2022-12-18T05:37:18;-7.80;99.90
46336;DHT22;31365;48.858;8.530;2022-12-18T05:39:47;-7.90;99.90
46336;DHT22;31365;48.858;8.530;2022-12-18T05:42:17;-8.00;99.90
46336;DHT22;31365;48.858;8.530;2022-12-18T05:44:46;-8.00;99.90
46336;DHT22;31365;48.858;8.530;2022-12-18T05:47:14;-7.90;99.90
46336;DHT22;31365;48.858;8.530;2022-12-18T05:49:43;-7.80;99.90
46336;DHT22;31365;48.858;8.530;2022-12-18T05:52:11;-7.90;99.90
46336;DHT22;31365;48.858;8.530;2022-12-18T05:54:40;-7.90;99.90
46336;DHT22;31365;48.858;8.530;2022-12-18T05:57:08;-7.90;99.90
46336;DHT22;31365;48.858;8.530;2022-12-18T05:59:38;-8.00;99.90
46336;DHT22;31365;48.858;8.530;2022-12-18T06:02:07;-8.00;99.90
46336;DHT22;31365;48.858;8.530;2022-12-18T06:04:36;-8.00;99.90
46336;DHT22;31365;48.858;8.530;2022-12-18T06:07:04;-8.10;99.90
46336;DHT22;31365;48.858;8.530;2022-12-18T06:09:33;-8.10;99.90
46336;DHT22;31365;48.858;8.530;2022-12-18T06:12:01;-8.10;99.90
46336;DHT22;31365;48.858;8.530;2022-12-18T06:14:29;-8.10;99.90
46336;DHT22;31365;48.858;8.530;2022-12-18T06:16:59;-8.20;99.90
46336;DHT22;31365;48.858;8.530;2022-12-18T06:19:27;-8.30;99.90
46336;DHT22;31365;48.858;8.530;2022-12-18T06:21:56;-8.30;99.90
46336;DHT22;31365;48.858;8.530;2022-12-18T06:24:25;-8.20;99.90
46336;DHT22;31365;48.858;8.530;2022-12-18T06:26:54;-8.30;99.90
46336;DHT22;31365;48.858;8.530;2022-12-18T06:29:22;-8.40;99.90
46336;DHT22;31365;48.858;8.530;2022-12-18T06:31:50;-8.40;99.90
46336;DHT22;31365;48.858;8.530;2022-12-18T06:34:20;-8.20;99.90
46336;DHT22;31365;48.858;8.530;2022-12-18T06:36:49;-8.40;99.90
46336;DHT22;31365;48.858;8.530;2022-12-18T06:39:17;-8.40;99.90
46336;DHT22;31365;48.858;8.530;2022-12-18T06:41:46;-8.40;99.90
46336;DHT22;31365;48.858;8.530;2022-12-18T06:44:14;-8.30;99.90
46336;DHT22;31365;48.858;8.530;2022-12-18T06:46:43;-8.40;99.90
46336;DHT22;31365;48.858;8.530;2022-12-18T06:49:11;-8.40;99.90
46336;DHT22;31365;48.858;8.530;2022-12-18T06:51:42;-8.50;99.90
46336;DHT22;31365;48.858;8.530;2022-12-18T06:54:11;-8.40;99.90
46336;DHT22;31365;48.858;8.530;2022-12-18T06:56:40;-8.20;99.90
46336;DHT22;31365;48.858;8.530;2022-12-18T06:59:08;-8.40;99.90
46336;DHT22;31365;48.858;8.530;2022-12-18T07:01:36;-8.40;99.90
46336;DHT22;31365;48.858;8.530;2022-12-18T07:04:05;-8.20;99.90
46336;DHT22;31365;48.858;8.530;2022-12-18T07:06:33;-8.30;99.90
46336;DHT22;31365;48.858;8.530;2022-12-18T07:09:03;-8.40;99.90
46336;DHT22;31365;48.858;8.530;2022-12-18T07:11:32;-8.30;99.90
46336;DHT22;31365;48.858;8.530;2022-12-18T07:14:01;-8.10;99.90
46336;DHT22;31365;48.858;8.530;2022-12-18T07:16:30;-8.20;99.90
46336;DHT22;31365;48.858;8.530;2022-12-18T07:18:58;-8.30;99.90
46336;DHT22;31365;48.858;8.530;2022-12-18T07:21:26;-8.20;99.90
46336;DHT22;31365;48.858;8.530;2022-12-18T07:23:55;-8.20;99.90
46336;DHT22;31365;48.858;8.530;2022-12-18T07:26:25;-8.20;99.90
46336;DHT22;31365;48.858;8.530;2022-12-18T07:28:56;-8.20;99.90
46336;DHT22;31365;48.858;8.530;2022-12-18T07:31:25;-8.30;99.90
46336;DHT22;31365;48.858;8.530;2022-12-18T07:33:55;-8.30;99.90
46336;DHT22;31365;48.858;8.530;2022-12-18T07:36:24;-8.30;99.90
46336;DHT22;31365;48.858;8.530;2022-12-18T07:38:52;-8.20;99.90
46336;DHT22;31365;48.858;8.530;2022-12-18T07:41:21;-8.20;99.90
46336;DHT22;31365;48.858;8.530;2022-12-18T07:43:51;-8.30;99.90
46336;DHT22;31365;48.858;8.530;2022-12-18T07:46:20;-8.30;99.90
46336;DHT22;31365;48.858;8.530;2022-12-18T07:48:48;-8.40;99.90
46336;DHT22;31365;48.858;8.530;2022-12-18T07:51:18;-8.20;99.90
46336;DHT22;31365;48.858;8.530;2022-12-18T07:53:47;-8.40;99.90
46336;DHT22;31365;48.858;8.530;2022-12-18T07:56:19;-8.40;99.90
46336;DHT22;31365;48.858;8.530;2022-12-18T07:58:56;-8.40;99.90
46336;DHT22;31365;48.858;8.530;2022-12-18T08:01:26;-8.40;99.90
46336;DHT22;31365;48.858;8.530;2022-12-18T08:03:55;-8.20;99.90
46336;DHT22;31365;48.858;8.530;2022-12-18T08:06:25;-8.20;99.90
46336;DHT22;31365;48.858;8.530;2022-12-18T08:08:55;-8.10;99.90
46336;DHT22;31365;48.858;8.530;2022-12-18T08:11:26;-8.00;99.90
46336;DHT22;31365;48.858;8.530;2022-12-18T08:13:57;-7.90;99.90
46336;DHT22;31365;48.858;8.530;2022-12-18T08:16:26;-7.90;99.90
46336;DHT22;31365;48.858;8.530;2022-12-18T08:18:55;-7.80;99.90
46336;DHT22;31365;48.858;8.530;2022-12-18T08:21:25;-7.80;99.90
46336;DHT22;31365;48.858;8.530;2022-12-18T08:23:56;-7.70;99.90
46336;DHT22;31365;48.858;8.530;2022-12-18T08:26:28;-7.70;99.90
46336;DHT22;31365;48.858;8.530;2022-12-18T08:29:00;-7.80;99.90
46336;DHT22;31365;48.858;8.530;2022-12-18T08:31:29;-7.80;99.90
46336;DHT22;31365;48.858;8.530;2022-12-18T08:33:59;-7.80;99.90
46336;DHT22;31365;48.858;8.530;2022-12-18T08:36:27;-7.70;99.90
46336;DHT22;31365;48.858;8.530;2022-12-18T08:38:56;-7.50;99.90
46336;DHT22;31365;48.858;8.530;2022-12-18T08:41:26;-7.30;99.90
46336;DHT22;31365;48.858;8.530;2022-12-18T08:43:54;-7.20;99.90
46336;DHT22;31365;48.858;8.530;2022-12-18T08:46:44;-7.10;99.90
46336;DHT22;31365;48.858;8.530;2022-12-18T08:49:12;-6.90;99.90
46336;DHT22;31365;48.858;8.530;2022-12-18T08:51:41;-6.80;99.90
46336;DHT22;31365;48.858;8.530;2022-12-18T08:54:11;-6.60;99.90
46336;DHT22;31365;48.858;8.530;2022-12-18T08:56:40;-6.60;99.90
46336;DHT22;31365;48.858;8.530;2022-12-18T08:59:09;-6.50;99.90
46336;DHT22;31365;48.858;8.530;2022-12-18T09:01:47;-6.50;99.90
46336;DHT22;31365;48.858;8.530;2022-12-18T09:04:17;-6.40;99.90
46336;DHT22;31365;48.858;8.530;2022-12-18T09:06:45;-6.40;99.90
46336;DHT22;31365;48.858;8.530;2022-12-18T09:09:14;-6.40;99.90
46336;DHT22;31365;48.858;8.530;2022-12-18T09:11:42;-6.40;99.90
46336;DHT22;31365;48.858;8.530;2022-12-18T09:14:11;-6.30;99.90
46336;DHT22;31365;48.858;8.530;2022-12-18T09:16:40;-6.30;99.90
46336;DHT22;31365;48.858;8.530;2022-12-18T09:19:10;-6.20;99.90
46336;DHT22;31365;48.858;8.530;2022-12-18T09:21:38;-6.20;99.90
46336;DHT22;31365;48.858;8.530;2022-12-18T10:51:47;0.60;99.90
46336;DHT22;31365;48.858;8.530;2022-12-18T10:54:21;1.10;99.90
46336;DHT22;31365;48.858;8.530;2022-12-18T10:57:35;1.60;99.90
46336;DHT22;31365;48.858;8.530;2022-12-18T11:00:23;1.90;99.90
46336;DHT22;31365;48.858;8.530;2022-12-18T11:03:00;2.20;99.90
46336;DHT22;31365;48.858;8.530;2022-12-18T11:05:31;2.60;99.90
46336;DHT22;31365;48.858;8.530;2022-12-18T11:08:20;2.60;99.90
46336;DHT22;31365;48.858;8.530;2022-12-18T11:11:17;2.80;99.90
46336;DHT22;31365;48.858;8.530;2022-12-18T11:13:59;3.10;99.90
46336;DHT22;31365;48.858;8.530;2022-12-18T11:16:45;3.30;99.90
46336;DHT22;31365;48.858;8.530;2022-12-18T11:19:44;3.50;99.90
46336;DHT22;31365;48.858;8.530;2022-12-18T11:22:22;3.90;99.90
46336;DHT22;31365;48.858;8.530;2022-12-18T11:24:59;4.00;99.90
46336;DHT22;31365;48.858;8.530;2022-12-18T11:27:55;4.30;99.90
46336;DHT22;31365;48.858;8.530;2022-12-18T11:30:27;4.40;99.90
46336;DHT22;31365;48.858;8.530;2022-12-18T11:33:04;4.50;99.90
46336;DHT22;31365;48.858;8.530;2022-12-18T11:35:44;4.60;99.90
46336;DHT22;31365;48.858;8.530;2022-12-18T11:38:22;4.80;99.90
46336;DHT22;31365;48.858;8.530;2022-12-18T11:40:58;4.80;99.90
46336;DHT22;31365;48.858;8.530;2022-12-18T11:43:33;4.70;99.90
46336;DHT22;31365;48.858;8.530;2022-12-18T11:46:10;4.40;99.90
46336;DHT22;31365;48.858;8.530;2022-12-18T11:48:49;4.20;99.90
46336;DHT22;31365;48.858;8.530;2022-12-18T11:51:28;4.20;99.90
46336;DHT22;31365;48.858;8.530;2022-12-18T11:54:08;4.00;99.90
46336;DHT22;31365;48.858;8.530;2022-12-18T11:56:47;4.20;99.90
46336;DHT22;31365;48.858;8.530;2022-12-18T11:59:27;3.90;99.90
46336;DHT22;31365;48.858;8.530;2022-12-18T12:02:17;3.90;99.90
46336;DHT22;31365;48.858;8.530;2022-12-18T12:05:18;3.80;99.90
46336;DHT22;31365;48.858;8.530;2022-12-18T12:07:59;3.40;99.90
46336;DHT22;31365;48.858;8.530;2022-12-18T12:10:46;2.80;99.90
46336;DHT22;31365;48.858;8.530;2022-12-18T12:13:37;2.20;99.90
46336;DHT22;31365;48.858;8.530;2022-12-18T12:16:18;1.90;99.90
46336;DHT22;31365;48.858;8.530;2022-12-18T12:19:01;1.90;99.90
46336;DHT22;31365;48.858;8.530;2022-12-18T12:21:50;1.60;99.90
46336;DHT22;31365;48.858;8.530;2022-12-18T12:24:32;1.30;99.90
46336;DHT22;31365;48.858;8.530;2022-12-18T12:27:19;1.10;99.90
46336;DHT22;31365;48.858;8.530;2022-12-18T12:30:03;1.20;99.90
46336;DHT22;31365;48.858;8.530;2022-12-18T12:32:50;0.60;99.90
46336;DHT22;31365;48.858;8.530;2022-12-18T12:35:44;0.40;99.90
46336;DHT22;31365;48.858;8.530;2022-12-18T12:38:24;0.20;99.90
46336;DHT22;31365;48.858;8.530;2022-12-18T12:41:00;0.10;99.90
46336;DHT22;31365;48.858;8.530;2022-12-18T12:43:58;-0.10;99.90
46336;DHT22;31365;48.858;8.530;2022-12-18T12:46:37;0.00;99.90
46336;DHT22;31365;48.858;8.530;2022-12-18T12:49:13;0.00;99.90
46336;DHT22;31365;48.858;8.530;2022-12-18T12:51:49;0.00;99.90
46336;DHT22;31365;48.858;8.530;2022-12-18T12:54:26;-0.10;99.90
46336;DHT22;31365;48.858;8.530;2022-12-18T12:57:01;-0.20;99.90
46336;DHT22;31365;48.858;8.530;2022-12-18T12:59:41;-0.20;99.90
46336;DHT22;31365;48.858;8.530;2022-12-18T13:02:23;-0.30;99.90
46336;DHT22;31365;48.858;8.530;2022-12-18T13:05:06;-0.20;99.90
46336;DHT22;31365;48.858;8.530;2022-12-18T13:07:50;-0.30;99.90
46336;DHT22;31365;48.858;8.530;2022-12-18T13:10:26;-0.20;99.90
46336;DHT22;31365;48.858;8.530;2022-12-18T13:13:04;0.00;99.90
46336;DHT22;31365;48.858;8.530;2022-12-18T13:15:38;-0.20;99.90
46336;DHT22;31365;48.858;8.530;2022-12-18T13:18:16;-0.30;99.90
46336;DHT22;31365;48.858;8.530;2022-12-18T13:20:49;0.50;99.90
46336;DHT22;31365;48.858;8.530;2022-12-18T13:23:32;-0.20;99.90
46336;DHT22;31365;48.858;8.530;2022-12-18T13:26:31;-0.20;99.90
46336;DHT22;31365;48.858;8.530;2022-12-18T13:29:01;-0.30;99.90
46336;DHT22;31365;48.858;8.530;2022-12-18T13:34:33;-0.10;99.90
46336;DHT22;31365;48.858;8.530;2022-12-18T13:37:42;-0.30;99.90
46336;DHT22;31365;48.858;8.530;2022-12-18T13:43:43;-0.30;99.90
46336;DHT22;31365;48.858;8.530;2022-12-18T13:46:27;-0.40;99.90
46336;DHT22;31365;48.858;8.530;2022-12-18T13:49:01;-0.40;99.90
46336;DHT22;31365;48.858;8.530;2022-12-18T13:51:35;-0.50;99.90
46336;DHT22;31365;48.858;8.530;2022-12-18T13:54:18;-0.60;99.90
46336;DHT22;31365;48.858;8.530;2022-12-18T13:56:49;-0.50;99.90
46336;DHT22;31365;48.858;8.530;2022-12-18T13:59:19;-0.60;99.90
46336;DHT22;31365;48.858;8.530;2022-12-18T14:01:53;-0.70;99.90
46336;DHT22;31365;48.858;8.530;2022-12-18T14:04:26;-0.70;99.90
46336;DHT22;31365;48.858;8.530;2022-12-18T14:07:01;-0.70;99.90
46336;DHT22;31365;48.858;8.530;2022-12-18T14:09:36;-0.70;99.90
46336;DHT22;31365;48.858;8.530;2022-12-18T14:12:15;-0.80;99.90
46336;DHT22;31365;48.858;8.530;2022-12-18T14:15:06;-0.90;99.90
46336;DHT22;31365;48.858;8.530;2022-12-18T14:17:50;-0.90;99.90
46336;DHT22;31365;48.858;8.530;2022-12-18T14:20:20;-0.70;99.90
46336;DHT22;31365;48.858;8.530;2022-12-18T14:22:51;-1.00;99.90
46336;DHT22;31365;48.858;8.530;2022-12-18T14:25:22;-1.00;99.90
46336;DHT22;31365;48.858;8.530;2022-12-18T14:27:57;-1.10;99.90
46336;DHT22;31365;48.858;8.530;2022-12-18T14:30:40;-1.10;99.90
46336;DHT22;31365;48.858;8.530;2022-12-18T14:33:10;-1.10;99.90
46336;DHT22;31365;48.858;8.530;2022-12-18T14:35:51;-1.30;99.90
46336;DHT22;31365;48.858;8.530;2022-12-18T14:38:28;-1.30;99.90
46336;DHT22;31365;48.858;8.530;2022-12-18T14:41:00;-1.40;99.90
46336;DHT22;31365;48.858;8.530;2022-12-18T14:43:32;-1.50;99.90
46336;DHT22;31365;48.858;8.530;2022-12-18T14:46:03;-1.60;99.90
46336;DHT22;31365;48.858;8.530;2022-12-18T14:48:37;-1.60;99.90
46336;DHT22;31365;48.858;8.530;2022-12-18T14:51:15;-1.70;99.90
46336;DHT22;31365;48.858;8.530;2022-12-18T14:53:48;-1.70;99.90
46336;DHT22;31365;48.858;8.530;2022-12-18T14:56:24;-1.80;99.90
46336;DHT22;31365;48.858;8.530;2022-12-18T14:58:55;-2.00;99.90
46336;DHT22;31365;48.858;8.530;2022-12-18T15:01:29;-2.10;99.90
46336;DHT22;31365;48.858;8.530;2022-12-18T15:04:02;-2.10;99.90
46336;DHT22;31365;48.858;8.530;2022-12-18T15:06:34;-2.10;99.90
46336;DHT22;31365;48.858;8.530;2022-12-18T15:09:22;-1.40;99.90
46336;DHT22;31365;48.858;8.530;2022-12-18T15:11:56;-2.10;99.90
46336;DHT22;31365;48.858;8.530;2022-12-18T15:14:34;-2.30;99.90
46336;DHT22;31365;48.858;8.530;2022-12-18T15:17:16;-2.30;99.90
46336;DHT22;31365;48.858;8.530;2022-12-18T15:19:48;-2.30;99.90
46336;DHT22;31365;48.858;8.530;2022-12-18T15:22:22;-2.30;99.90
46336;DHT22;31365;48.858;8.530;2022-12-18T15:24:56;-2.40;99.90
46336;DHT22;31365;48.858;8.530;2022-12-18T15:27:29;-2.50;99.90
46336;DHT22;31365;48.858;8.530;2022-12-18T15:30:19;-2.50;99.90
46336;DHT22;31365;48.858;8.530;2022-12-18T15:32:50;-2.60;99.90
46336;DHT22;31365;48.858;8.530;2022-12-18T15:35:23;-2.70;99.90
46336;DHT22;31365;48.858;8.530;2022-12-18T15:37:53;-2.70;99.90
46336;DHT22;31365;48.858;8.530;2022-12-18T15:40:24;-2.70;99.90
46336;DHT22;31365;48.858;8.530;2022-12-18T15:42:54;-2.80;99.90
46336;DHT22;31365;48.858;8.530;2022-12-18T15:45:41;-2.80;99.90
46336;DHT22;31365;48.858;8.530;2022-12-18T15:48:18;-2.90;99.90
46336;DHT22;31365;48.858;8.530;2022-12-18T15:50:49;-2.90;99.90
46336;DHT22;31365;48.858;8.530;2022-12-18T15:53:19;-3.00;99.90
46336;DHT22;31365;48.858;8.530;2022-12-18T15:55:49;-3.00;99.90
46336;DHT22;31365;48.858;8.530;2022-12-18T15:58:36;-3.00;99.90
46336;DHT22;31365;48.858;8.530;2022-12-18T16:01:05;-3.00;99.90
46336;DHT22;31365;48.858;8.530;2022-12-18T16:03:40;-3.00;99.90
46336;DHT22;31365;48.858;8.530;2022-12-18T16:06:11;-3.00;99.90
46336;DHT22;31365;48.858;8.530;2022-12-18T16:08:40;-3.00;99.90
46336;DHT22;31365;48.858;8.530;2022-12-18T16:11:19;-2.90;99.90
46336;DHT22;31365;48.858;8.530;2022-12-18T16:14:08;-2.90;99.90
46336;DHT22;31365;48.858;8.530;2022-12-18T16:16:44;-2.90;99.90
46336;DHT22;31365;48.858;8.530;2022-12-18T16:19:13;-2.80;99.90
46336;DHT22;31365;48.858;8.530;2022-12-18T16:21:43;-2.80;99.90
46336;DHT22;31365;48.858;8.530;2022-12-18T16:24:15;-2.70;99.90
46336;DHT22;31365;48.858;8.530;2022-12-18T16:26:46;-2.80;99.90
46336;DHT22;31365;48.858;8.530;2022-12-18T16:29:14;-2.70;99.90
46336;DHT22;31365;48.858;8.530;2022-12-18T16:31:43;-2.70;99.90
46336;DHT22;31365;48.858;8.530;2022-12-18T16:34:14;-2.60;99.90
46336;DHT22;31365;48.858;8.530;2022-12-18T16:36:52;-2.60;99.90
46336;DHT22;31365;48.858;8.530;2022-12-18T16:39:30;-2.60;99.90
46336;DHT22;31365;48.858;8.530;2022-12-18T16:42:02;-2.70;99.90
46336;DHT22;31365;48.858;8.530;2022-12-18T16:44:32;-2.60;99.90
46336;DHT22;31365;48.858;8.530;2022-12-18T16:47:02;-2.60;99.90
46336;DHT22;31365;48.858;8.530;2022-12-18T16:49:32;-2.50;99.90
46336;DHT22;31365;48.858;8.530;2022-12-18T16:52:01;-2.40;99.90
46336;DHT22;31365;48.858;8.530;2022-12-18T16:54:31;-2.40;99.90
46336;DHT22;31365;48.858;8.530;2022-12-18T16:57:03;-2.30;99.90
46336;DHT22;31365;48.858;8.530;2022-12-18T16:59:32;-2.30;99.90
46336;DHT22;31365;48.858;8.530;2022-12-18T17:02:02;-2.30;99.90
46336;DHT22;31365;48.858;8.530;2022-12-18T17:04:31;-2.20;99.90
46336;DHT22;31365;48.858;8.530;2022-12-18T17:06:59;-2.20;99.90
46336;DHT22;31365;48.858;8.530;2022-12-18T17:09:30;-2.10;99.90
46336;DHT22;31365;48.858;8.530;2022-12-18T17:11:59;-2.20;99.90
46336;DHT22;31365;48.858;8.530;2022-12-18T17:14:32;-2.20;99.90
46336;DHT22;31365;48.858;8.530;2022-12-18T17:17:01;-2.20;99.90
46336;DHT22;31365;48.858;8.530;2022-12-18T17:19:50;-2.20;99.90
46336;DHT22;31365;48.858;8.530;2022-12-18T17:22:20;-2.20;99.90
46336;DHT22;31365;48.858;8.530;2022-12-18T17:24:49;-2.20;99.90
46336;DHT22;31365;48.858;8.530;2022-12-18T17:27:17;-2.20;99.90
46336;DHT22;31365;48.858;8.530;2022-12-18T17:29:47;-2.20;99.90
46336;DHT22;31365;48.858;8.530;2022-12-18T17:32:17;-2.10;99.90
46336;DHT22;31365;48.858;8.530;2022-12-18T17:34:46;-2.10;99.90
46336;DHT22;31365;48.858;8.530;2022-12-18T17:37:14;-2.10;99.90
46336;DHT22;31365;48.858;8.530;2022-12-18T17:39:43;-2.10;99.90
46336;DHT22;31365;48.858;8.530;2022-12-18T17:42:12;-2.10;99.90
46336;DHT22;31365;48.858;8.530;2022-12-18T17:44:42;-2.10;99.90
46336;DHT22;31365;48.858;8.530;2022-12-18T17:47:13;-2.10;99.90
46336;DHT22;31365;48.858;8.530;2022-12-18T17:49:42;-2.10;99.90
46336;DHT22;31365;48.858;8.530;2022-12-18T17:52:10;-2.20;99.90